Time;durP1;ratioP1;P1;durP2;ratioP2;P2;SDS_P1;SDS_P2;PMS_P1;PMS_P2;Temp;Humidity;BMP_temperature;BMP_pressure;BME280_temperature;BME280_humidity;BME280_pressure;Samples;Min_cycle;Max_cycle;Signal;HPM_P1;HPM_P2
2022/03/13 00:01:03;;;;;;;42.83;27.40;;;;;;;;;;4956846;28;20483;-71
2022/03/13 00:03:34;;;;;;;37.28;25.25;;;;;;;;;;4957054;28;20419;-73
2022/03/13 00:06:02;;;;;;;34.10;24.63;;;;;;;;;;4956615;29;20502;-72
2022/03/13 00:08:32;;;;;;;28.52;24.02;;;;;;;;;;4956838;28;20086;-74
2022/03/13 00:11:08;;;;;;;33.47;25.52;;;;;;;;;;4957139;28;20059;-74
2022/03/13 00:13:39;;;;;;;38.42;27.90;;;;;;;;;;4956285;28;20056;-74
2022/03/13 00:16:09;;;;;;;36.70;27.80;;;;;;;;;;4955999;28;20063;-74
2022/03/13 00:18:46;;;;;;;35.38;28.55;;;;;;;;;;4956820;28;20499;-74
2022/03/13 00:21:17;;;;;;;38.35;30.58;;;;;;;;;;4957164;28;20051;-72
2022/03/13 00:23:46;;;;;;;42.08;29.77;;;;;;;;;;4956514;29;20102;-74
2022/03/13 00:26:16;;;;;;;43.67;31.27;;;;;;;;;;4956560;28;20133;-74
2022/03/13 00:28:44;;;;;;;34.22;28.92;;;;;;;;;;4956295;28;20055;-72
2022/03/13 00:31:14;;;;;;;41.17;28.52;;;;;;;;;;4957027;28;20106;-72
2022/03/13 00:33:43;;;;;;;48.13;30.95;;;;;;;;;;4956424;28;20511;-74
2022/03/13 00:36:12;;;;;;;35.15;29.23;;;;;;;;;;4956345;28;20131;-74
2022/03/13 00:38:40;;;;;;;41.13;27.50;;;;;;;;;;4955718;29;20063;-73
2022/03/13 00:41:09;;;;;;;40.60;31.08;;;;;;;;;;4956040;28;20521;-72
2022/03/13 00:43:38;;;;;;;37.05;30.50;;;;;;;;;;4937355;29;20071;-70
2022/03/13 00:46:10;;;;;;;36.65;29.67;;;;;;;;;;4944223;28;20495;-72
2022/03/13 00:48:41;;;;;;;36.53;29.77;;;;;;;;;;4952448;29;20110;-73
2022/03/13 00:51:09;;;;;;;38.17;30.73;;;;;;;;;;4955383;29;20086;-72
2022/03/13 00:53:38;;;;;;;42.63;33.58;;;;;;;;;;4955861;28;20043;-73
2022/03/13 00:56:07;;;;;;;44.50;33.35;;;;;;;;;;4954258;29;20189;-73
2022/03/13 00:58:35;;;;;;;41.13;31.73;;;;;;;;;;4955438;28;20170;-72
2022/03/13 01:01:04;;;;;;;37.78;31.33;;;;;;;;;;4955157;28;20093;-72
2022/03/13 01:03:34;;;;;;;42.05;31.48;;;;;;;;;;4954171;29;20106;-73
2022/03/13 01:06:07;;;;;;;45.38;33.28;;;;;;;;;;4955175;28;20057;-73
2022/03/13 01:08:35;;;;;;;42.00;29.23;;;;;;;;;;4943070;29;20471;-73
2022/03/13 01:11:05;;;;;;;38.53;30.08;;;;;;;;;;4955181;28;20051;-73
2022/03/13 01:13:35;;;;;;;36.25;28.75;;;;;;;;;;4955381;28;20487;-73
2022/03/13 01:16:44;;;;;;;37.88;29.02;;;;;;;;;;4954119;28;20043;-73
2022/03/13 01:19:14;;;;;;;36.90;26.38;;;;;;;;;;4953713;29;20422;-73
2022/03/13 01:21:44;;;;;;;40.08;28.98;;;;;;;;;;4955578;28;20043;-73
2022/03/13 01:24:14;;;;;;;37.40;28.20;;;;;;;;;;4955236;28;20106;-73
2022/03/13 01:26:42;;;;;;;36.85;29.92;;;;;;;;;;4955376;28;20138;-73
2022/03/13 01:29:13;;;;;;;35.75;28.42;;;;;;;;;;4955306;28;20055;-73
2022/03/13 01:31:44;;;;;;;33.17;25.48;;;;;;;;;;4955054;29;20062;-73
2022/03/13 01:34:31;;;;;;;34.97;27.35;;;;;;;;;;4939547;29;20051;-73
2022/03/13 01:37:00;;;;;;;39.75;31.13;;;;;;;;;;4955644;28;20051;-73
2022/03/13 01:39:29;;;;;;;37.75;28.23;;;;;;;;;;4954834;28;20047;-73
2022/03/13 01:41:58;;;;;;;42.80;29.73;;;;;;;;;;4955655;28;20058;-73
2022/03/13 01:44:26;;;;;;;34.10;25.60;;;;;;;;;;4954125;29;20047;-74
2022/03/13 01:46:55;;;;;;;35.38;27.65;;;;;;;;;;4953746;28;20459;-74
2022/03/13 01:49:25;;;;;;;36.90;29.17;;;;;;;;;;4955723;28;20055;-74
2022/03/13 01:51:53;;;;;;;36.17;27.38;;;;;;;;;;4958784;28;20047;-73
2022/03/13 01:54:21;;;;;;;41.88;27.90;;;;;;;;;;4957213;29;20455;-72
2022/03/13 01:56:49;;;;;;;38.58;27.95;;;;;;;;;;4958867;28;20454;-72
2022/03/13 01:59:17;;;;;;;37.80;29.30;;;;;;;;;;4959476;28;20122;-73
2022/03/13 02:01:45;;;;;;;41.97;31.08;;;;;;;;;;4958852;29;20063;-73
2022/03/13 02:04:14;;;;;;;46.22;30.35;;;;;;;;;;4958218;29;20111;-73
2022/03/13 02:06:43;;;;;;;31.77;26.48;;;;;;;;;;4958363;28;20051;-72
2022/03/13 02:09:12;;;;;;;31.25;24.48;;;;;;;;;;4958492;28;20106;-72
2022/03/13 02:11:42;;;;;;;38.53;27.00;;;;;;;;;;4958678;28;20074;-73
2022/03/13 02:14:12;;;;;;;38.42;23.88;;;;;;;;;;4958438;28;20055;-73
2022/03/13 02:16:42;;;;;;;30.20;25.20;;;;;;;;;;4958196;28;20051;-73
2022/03/13 02:19:09;;;;;;;29.95;21.90;;;;;;;;;;4957839;29;20511;-73
2022/03/13 02:21:50;;;;;;;30.70;23.85;;;;;;;;;;4958674;28;20047;-73
2022/03/13 02:24:35;;;;;;;39.65;25.08;;;;;;;;;;4958648;28;20058;-72
2022/03/13 02:27:06;;;;;;;40.35;25.52;;;;;;;;;;4957967;28;20126;-72
2022/03/13 02:29:36;;;;;;;30.73;24.52;;;;;;;;;;4958295;28;20130;-72
2022/03/13 02:32:06;;;;;;;33.50;24.25;;;;;;;;;;4957939;28;20054;-72
2022/03/13 02:34:34;;;;;;;34.08;25.20;;;;;;;;;;4956642;29;20134;-72
2022/03/13 02:37:05;;;;;;;33.08;23.75;;;;;;;;;;4957851;28;20047;-72
2022/03/13 02:39:36;;;;;;;30.25;23.55;;;;;;;;;;4957845;29;20083;-72
2022/03/13 02:42:07;;;;;;;30.67;25.33;;;;;;;;;;4957699;28;20058;-72
2022/03/13 02:44:35;;;;;;;34.58;24.30;;;;;;;;;;4957357;29;20070;-72
2022/03/13 02:47:06;;;;;;;32.20;26.40;;;;;;;;;;4938211;29;20149;-72
2022/03/13 02:49:33;;;;;;;30.83;23.98;;;;;;;;;;4947311;29;20055;-72
2022/03/13 02:52:04;;;;;;;27.55;22.08;;;;;;;;;;4956420;28;20085;-72
2022/03/13 02:54:33;;;;;;;30.77;23.50;;;;;;;;;;4956471;29;20078;-72
2022/03/13 02:57:01;;;;;;;28.52;24.75;;;;;;;;;;4956643;29;20130;-71
2022/03/13 02:59:29;;;;;;;36.42;24.63;;;;;;;;;;4956761;28;20063;-71
2022/03/13 03:02:01;;;;;;;31.27;25.65;;;;;;;;;;4938465;29;20525;-71
2022/03/13 03:04:29;;;;;;;35.90;26.60;;;;;;;;;;4945788;29;20062;-71
2022/03/13 03:07:01;;;;;;;30.67;25.27;;;;;;;;;;4955991;29;20518;-71
2022/03/13 03:09:32;;;;;;;34.85;26.40;;;;;;;;;;4956235;29;20051;-71
2022/03/13 03:12:01;;;;;;;35.28;25.23;;;;;;;;;;4957419;28;20142;-71
2022/03/13 03:14:30;;;;;;;30.20;24.27;;;;;;;;;;4955143;29;20055;-71
2022/03/13 03:16:58;;;;;;;29.02;22.30;;;;;;;;;;4948538;28;20138;-71
2022/03/13 03:19:27;;;;;;;29.02;23.27;;;;;;;;;;4956007;29;20130;-71
2022/03/13 03:21:56;;;;;;;29.67;24.05;;;;;;;;;;4957222;28;20138;-71
2022/03/13 03:24:25;;;;;;;31.30;23.60;;;;;;;;;;4956634;29;20062;-71
2022/03/13 03:26:55;;;;;;;31.13;23.55;;;;;;;;;;4955909;29;20523;-72
2022/03/13 03:29:27;;;;;;;30.52;24.60;;;;;;;;;;4957401;28;20129;-72
2022/03/13 03:31:57;;;;;;;31.17;22.90;;;;;;;;;;4956749;28;20055;-71
2022/03/13 03:34:27;;;;;;;27.55;22.13;;;;;;;;;;4957455;28;20107;-72
2022/03/13 03:37:00;;;;;;;35.50;22.92;;;;;;;;;;4956627;29;20106;-72
2022/03/13 03:39:30;;;;;;;29.65;23.55;;;;;;;;;;4957023;29;20403;-73
2022/03/13 03:42:00;;;;;;;29.48;22.55;;;;;;;;;;4956849;28;20054;-73
2022/03/13 03:44:28;;;;;;;29.17;22.00;;;;;;;;;;4956574;28;20066;-73
2022/03/13 03:46:56;;;;;;;27.60;21.02;;;;;;;;;;4956595;28;20519;-73
2022/03/13 03:49:25;;;;;;;35.42;23.13;;;;;;;;;;4955273;29;20055;-73
2022/03/13 03:51:53;;;;;;;32.03;23.15;;;;;;;;;;4956298;28;20078;-73
2022/03/13 03:54:21;;;;;;;30.20;22.60;;;;;;;;;;4955897;28;20462;-73
2022/03/13 03:56:50;;;;;;;28.73;23.02;;;;;;;;;;4956692;28;20522;-73
2022/03/13 03:59:23;;;;;;;27.35;22.50;;;;;;;;;;4957242;28;20130;-73
2022/03/13 04:01:52;;;;;;;30.60;22.63;;;;;;;;;;4956576;28;20083;-72
2022/03/13 04:04:20;;;;;;;26.77;21.20;;;;;;;;;;4956105;29;20055;-73
2022/03/13 04:06:49;;;;;;;28.63;22.90;;;;;;;;;;4955901;28;20054;-73
2022/03/13 04:09:18;;;;;;;26.00;22.38;;;;;;;;;;4956820;29;20051;-73
2022/03/13 04:11:47;;;;;;;26.33;21.60;;;;;;;;;;4955673;28;20051;-73
2022/03/13 04:14:18;;;;;;;31.05;23.55;;;;;;;;;;4955084;29;20391;-73
2022/03/13 04:16:48;;;;;;;31.45;24.27;;;;;;;;;;4946365;28;20451;-73
2022/03/13 04:19:17;;;;;;;29.02;22.48;;;;;;;;;;4955979;28;20518;-73
2022/03/13 04:21:47;;;;;;;31.25;23.95;;;;;;;;;;4956157;28;20484;-73
2022/03/13 04:24:15;;;;;;;30.92;23.27;;;;;;;;;;4955959;28;20138;-73
2022/03/13 04:26:44;;;;;;;30.27;23.58;;;;;;;;;;4956637;28;20069;-73
2022/03/13 04:29:12;;;;;;;29.15;23.23;;;;;;;;;;4956571;28;20055;-73
2022/03/13 04:31:41;;;;;;;33.45;25.80;;;;;;;;;;4955648;28;20081;-73
2022/03/13 04:34:18;;;;;;;28.83;21.63;;;;;;;;;;4956369;28;20503;-72
2022/03/13 04:36:46;;;;;;;32.40;23.88;;;;;;;;;;4955333;28;20051;-73
2022/03/13 04:39:15;;;;;;;28.67;22.52;;;;;;;;;;4955834;28;20048;-72
2022/03/13 04:41:46;;;;;;;32.45;24.55;;;;;;;;;;4955648;28;20415;-73
2022/03/13 04:44:18;;;;;;;28.52;23.77;;;;;;;;;;4957086;28;20073;-73
2022/03/13 04:46:48;;;;;;;29.35;23.70;;;;;;;;;;4950167;29;20406;-73
2022/03/13 04:49:20;;;;;;;29.30;23.48;;;;;;;;;;4956394;28;20083;-73
2022/03/13 04:51:49;;;;;;;31.25;23.85;;;;;;;;;;4955230;28;20047;-72
2022/03/13 04:54:18;;;;;;;33.65;24.67;;;;;;;;;;4955535;28;20134;-72
2022/03/13 04:56:45;;;;;;;30.98;22.55;;;;;;;;;;4954243;29;20061;-72
2022/03/13 04:59:13;;;;;;;32.88;22.85;;;;;;;;;;4955336;29;20139;-72
2022/03/13 05:01:42;;;;;;;31.83;25.00;;;;;;;;;;4955521;29;20059;-72
2022/03/13 05:04:15;;;;;;;29.55;21.80;;;;;;;;;;4955443;28;20510;-72
2022/03/13 05:06:45;;;;;;;33.30;24.20;;;;;;;;;;4955568;28;20051;-72
2022/03/13 05:09:13;;;;;;;30.25;24.48;;;;;;;;;;4955410;28;20062;-72
2022/03/13 05:11:42;;;;;;;28.17;22.75;;;;;;;;;;4955906;28;20443;-72
2022/03/13 05:14:10;;;;;;;29.05;23.70;;;;;;;;;;4955170;28;20126;-72
2022/03/13 05:16:39;;;;;;;33.38;22.40;;;;;;;;;;4940220;29;20499;-72
2022/03/13 05:19:08;;;;;;;31.63;22.27;;;;;;;;;;4952457;29;20102;-72
2022/03/13 05:21:41;;;;;;;25.58;21.83;;;;;;;;;;4955198;29;20055;-72
2022/03/13 05:24:09;;;;;;;28.50;23.17;;;;;;;;;;4958418;28;20106;-72
2022/03/13 05:26:38;;;;;;;34.92;24.77;;;;;;;;;;4958104;29;20051;-72
2022/03/13 05:29:05;;;;;;;30.23;23.55;;;;;;;;;;4959902;28;20055;-74
2022/03/13 05:31:34;;;;;;;33.60;25.38;;;;;;;;;;4959954;29;20062;-73
2022/03/13 05:34:07;;;;;;;33.67;25.58;;;;;;;;;;4959366;28;20142;-73
2022/03/13 05:36:35;;;;;;;32.38;22.48;;;;;;;;;;4958295;29;20055;-73
2022/03/13 05:39:04;;;;;;;33.03;26.27;;;;;;;;;;4957381;28;20078;-73
2022/03/13 05:41:39;;;;;;;30.05;23.35;;;;;;;;;;4957432;29;20043;-73
2022/03/13 05:44:12;;;;;;;30.42;23.08;;;;;;;;;;4956343;29;20114;-71
2022/03/13 05:46:42;;;;;;;32.08;23.90;;;;;;;;;;4957425;28;20057;-74
2022/03/13 05:49:11;;;;;;;30.08;22.67;;;;;;;;;;4965573;28;20110;-74
2022/03/13 05:51:42;;;;;;;33.45;26.02;;;;;;;;;;4960314;28;20517;-73
2022/03/13 05:54:15;;;;;;;38.00;28.50;;;;;;;;;;4961422;28;20081;-74
2022/03/13 05:56:45;;;;;;;35.40;27.73;;;;;;;;;;4959484;28;20498;-73
2022/03/13 05:59:14;;;;;;;37.10;28.33;;;;;;;;;;4958259;28;20090;-74
2022/03/13 06:01:44;;;;;;;37.03;27.20;;;;;;;;;;4957896;29;20051;-72
2022/03/13 06:04:13;;;;;;;32.22;25.27;;;;;;;;;;4955881;28;20051;-72
2022/03/13 06:06:43;;;;;;;38.25;27.95;;;;;;;;;;4958805;28;20090;-73
2022/03/13 06:09:11;;;;;;;33.20;25.30;;;;;;;;;;4958486;28;20047;-73
2022/03/13 06:11:40;;;;;;;35.95;25.92;;;;;;;;;;4958533;29;20089;-72
2022/03/13 06:14:09;;;;;;;34.75;25.23;;;;;;;;;;4958050;28;20055;-71
2022/03/13 06:16:39;;;;;;;30.35;23.98;;;;;;;;;;4958390;28;20062;-72
2022/03/13 06:19:07;;;;;;;26.23;22.98;;;;;;;;;;4958471;29;20058;-72
2022/03/13 06:21:37;;;;;;;32.10;23.27;;;;;;;;;;4958075;28;20051;-72
2022/03/13 06:24:06;;;;;;;27.52;22.42;;;;;;;;;;4958777;28;20047;-71
2022/03/13 06:26:36;;;;;;;27.95;22.40;;;;;;;;;;4953752;29;20047;-72
2022/03/13 06:29:05;;;;;;;30.58;24.10;;;;;;;;;;4953144;29;20130;-72
2022/03/13 06:31:33;;;;;;;33.20;22.52;;;;;;;;;;4958153;29;20406;-72
2022/03/13 06:34:02;;;;;;;28.10;23.38;;;;;;;;;;4951690;28;20110;-72
2022/03/13 06:36:29;;;;;;;31.55;23.90;;;;;;;;;;4957303;28;20062;-72
2022/03/13 06:38:59;;;;;;;30.50;24.40;;;;;;;;;;4957829;28;20051;-72
2022/03/13 06:41:28;;;;;;;31.02;24.50;;;;;;;;;;4955718;29;20049;-71
2022/03/13 06:43:57;;;;;;;29.63;22.08;;;;;;;;;;4957880;28;20517;-72
2022/03/13 06:46:30;;;;;;;33.58;24.50;;;;;;;;;;4958008;28;20059;-71
2022/03/13 06:49:01;;;;;;;32.35;24.67;;;;;;;;;;4957204;29;20051;-71
2022/03/13 06:51:29;;;;;;;30.05;22.30;;;;;;;;;;4957659;28;20075;-71
2022/03/13 06:53:58;;;;;;;29.20;23.75;;;;;;;;;;4956952;29;20529;-71
2022/03/13 06:56:29;;;;;;;32.28;24.90;;;;;;;;;;4953121;29;20067;-71
2022/03/13 06:59:03;;;;;;;37.20;28.02;;;;;;;;;;4957472;28;20117;-71
2022/03/13 07:01:33;;;;;;;32.08;27.52;;;;;;;;;;4957576;28;20067;-71
2022/03/13 07:04:01;;;;;;;32.55;25.20;;;;;;;;;;4957334;28;20458;-72
2022/03/13 07:06:33;;;;;;;30.77;25.08;;;;;;;;;;4956566;29;20418;-72
2022/03/13 07:09:04;;;;;;;34.05;25.98;;;;;;;;;;4957906;28;20145;-73
2022/03/13 07:11:34;;;;;;;35.33;25.42;;;;;;;;;;4958465;28;20067;-73
2022/03/13 07:14:08;;;;;;;36.10;26.10;;;;;;;;;;4958212;29;20055;-74
2022/03/13 07:16:37;;;;;;;33.50;24.50;;;;;;;;;;4955191;29;20039;-71
2022/03/13 07:19:06;;;;;;;36.85;28.70;;;;;;;;;;4955858;28;20069;-71
2022/03/13 07:21:37;;;;;;;34.38;27.42;;;;;;;;;;4953397;28;20138;-71
2022/03/13 07:24:07;;;;;;;34.97;28.80;;;;;;;;;;4956655;29;20055;-72
2022/03/13 07:26:35;;;;;;;38.58;27.38;;;;;;;;;;4960505;28;20086;-72
2022/03/13 07:29:04;;;;;;;33.92;26.55;;;;;;;;;;4956146;29;20070;-72
2022/03/13 07:31:35;;;;;;;34.72;28.77;;;;;;;;;;4955782;28;20059;-72
2022/03/13 07:34:03;;;;;;;36.83;26.17;;;;;;;;;;4956470;28;20147;-72
2022/03/13 07:36:34;;;;;;;38.92;28.85;;;;;;;;;;4956416;28;20499;-72
2022/03/13 07:39:03;;;;;;;38.60;29.15;;;;;;;;;;4955787;28;20043;-72
2022/03/13 07:41:33;;;;;;;34.83;27.30;;;;;;;;;;4956485;28;20035;-73
2022/03/13 07:44:04;;;;;;;36.13;28.58;;;;;;;;;;4954750;28;20065;-73
2022/03/13 07:46:32;;;;;;;37.78;29.38;;;;;;;;;;4969122;28;20051;-73
2022/03/13 07:49:00;;;;;;;38.95;28.38;;;;;;;;;;4956637;29;20051;-74
2022/03/13 07:51:28;;;;;;;36.50;29.38;;;;;;;;;;4957458;28;20126;-75
2022/03/13 07:53:58;;;;;;;36.47;26.42;;;;;;;;;;4955959;29;20138;-75
2022/03/13 07:56:27;;;;;;;34.67;27.85;;;;;;;;;;4956960;29;20082;-74
2022/03/13 07:58:56;;;;;;;33.00;26.02;;;;;;;;;;4954800;28;20075;-75
2022/03/13 08:01:24;;;;;;;34.38;25.60;;;;;;;;;;4954202;29;20057;-83
2022/03/13 08:03:53;;;;;;;32.17;27.13;;;;;;;;;;4953634;28;20058;-79
2022/03/13 08:06:23;;;;;;;35.28;27.15;;;;;;;;;;4954946;29;20043;-78
2022/03/13 08:08:54;;;;;;;38.33;26.05;;;;;;;;;;4953064;28;20054;-78
2022/03/13 08:11:23;;;;;;;31.10;25.52;;;;;;;;;;4955039;28;20074;-79
2022/03/13 08:13:51;;;;;;;32.30;25.30;;;;;;;;;;4955664;28;20055;-77
2022/03/13 08:16:21;;;;;;;35.05;26.80;;;;;;;;;;4954155;28;20067;-75
2022/03/13 08:18:50;;;;;;;31.70;25.30;;;;;;;;;;4954183;28;20051;-75
2022/03/13 08:21:19;;;;;;;33.42;23.70;;;;;;;;;;4953421;28;20047;-74
2022/03/13 08:23:50;;;;;;;30.58;24.75;;;;;;;;;;4953525;28;20059;-75
2022/03/13 08:26:19;;;;;;;32.17;23.92;;;;;;;;;;4955552;28;20448;-76
2022/03/13 08:28:47;;;;;;;31.15;27.48;;;;;;;;;;4956608;28;20053;-72
2022/03/13 08:31:17;;;;;;;30.38;23.23;;;;;;;;;;4955971;28;20055;-76
2022/03/13 08:33:45;;;;;;;26.50;22.13;;;;;;;;;;4955918;28;20086;-75
2022/03/13 08:36:14;;;;;;;28.65;22.77;;;;;;;;;;4956623;28;20531;-74
2022/03/13 08:38:43;;;;;;;26.83;21.98;;;;;;;;;;4951793;29;20138;-76
2022/03/13 08:41:14;;;;;;;27.80;21.73;;;;;;;;;;4966745;28;20144;-76
2022/03/13 08:43:45;;;;;;;40.58;21.20;;;;;;;;;;4953500;28;20074;-77
2022/03/13 08:46:14;;;;;;;24.48;21.20;;;;;;;;;;4953617;29;20051;-77
2022/03/13 08:48:43;;;;;;;31.55;22.13;;;;;;;;;;4953467;28;20077;-79
2022/03/13 08:51:13;;;;;;;24.92;21.77;;;;;;;;;;4952491;29;20048;-79
2022/03/13 08:53:43;;;;;;;24.05;20.20;;;;;;;;;;4953632;28;20054;-74
2022/03/13 08:56:13;;;;;;;25.98;21.75;;;;;;;;;;4955321;28;20059;-78
2022/03/13 08:58:42;;;;;;;23.13;19.45;;;;;;;;;;4953798;28;20047;-77
2022/03/13 09:01:11;;;;;;;22.33;18.88;;;;;;;;;;4954456;28;20111;-77
2022/03/13 09:03:39;;;;;;;23.58;18.23;;;;;;;;;;4953940;28;20047;-80
2022/03/13 09:06:10;;;;;;;65.75;21.23;;;;;;;;;;4954704;28;20057;-81
2022/03/13 09:08:38;;;;;;;25.10;18.98;;;;;;;;;;4951338;29;20078;-81
2022/03/13 09:11:08;;;;;;;24.40;19.73;;;;;;;;;;4950051;29;20055;-80
2022/03/13 09:13:38;;;;;;;22.10;18.95;;;;;;;;;;4954108;28;20047;-76
2022/03/13 09:16:06;;;;;;;22.05;18.52;;;;;;;;;;4956106;28;20051;-76
2022/03/13 09:18:34;;;;;;;18.27;14.90;;;;;;;;;;5083113;23;20059;-71
2022/03/13 09:21:03;;;;;;;17.95;15.05;;;;;;;;;;4956458;28;20085;-72
2022/03/13 09:23:32;;;;;;;15.82;13.98;;;;;;;;;;4961134;28;20545;-73
2022/03/13 09:26:01;;;;;;;14.75;12.25;;;;;;;;;;4960180;28;20058;-74
2022/03/13 09:28:29;;;;;;;16.60;13.55;;;;;;;;;;4959393;28;20043;-72
2022/03/13 09:31:04;;;;;;;14.52;13.02;;;;;;;;;;4964337;28;20515;-73
2022/03/13 09:33:33;;;;;;;18.50;13.45;;;;;;;;;;4961932;28;20048;-73
2022/03/13 09:36:01;;;;;;;16.10;14.25;;;;;;;;;;4958910;28;20055;-74
2022/03/13 09:38:30;;;;;;;16.73;14.93;;;;;;;;;;4956427;28;20067;-74
2022/03/13 09:40:58;;;;;;;20.05;14.02;;;;;;;;;;4962897;28;20047;-74
2022/03/13 09:43:31;;;;;;;14.68;13.27;;;;;;;;;;4952465;28;20545;-74
2022/03/13 09:45:59;;;;;;;18.13;14.40;;;;;;;;;;4957395;28;20067;-74
2022/03/13 09:48:29;;;;;;;15.27;13.23;;;;;;;;;;4954381;28;20074;-75
2022/03/13 09:50:58;;;;;;;13.70;11.60;;;;;;;;;;4956113;28;20062;-75
2022/03/13 09:53:27;;;;;;;13.60;11.15;;;;;;;;;;4958751;28;20066;-76
2022/03/13 09:55:55;;;;;;;13.23;10.88;;;;;;;;;;4954177;28;20468;-75
2022/03/13 09:58:23;;;;;;;13.48;9.40;;;;;;;;;;4959988;28;20082;-74
2022/03/13 10:00:50;;;;;;;11.00;9.20;;;;;;;;;;4959153;28;20056;-75
2022/03/13 10:03:19;;;;;;;9.98;8.43;;;;;;;;;;4959428;28;20080;-76
2022/03/13 10:05:51;;;;;;;10.25;8.90;;;;;;;;;;4960740;28;20058;-76
2022/03/13 10:08:22;;;;;;;12.52;8.77;;;;;;;;;;4965534;28;20460;-75
2022/03/13 10:10:52;;;;;;;10.50;9.43;;;;;;;;;;4960311;28;20051;-77
2022/03/13 10:13:52;;;;;;;10.30;8.38;;;;;;;;;;4967485;28;20134;-76
2022/03/13 10:16:35;;;;;;;10.93;8.02;;;;;;;;;;4950052;28;20055;-75
2022/03/13 10:19:17;;;;;;;11.95;10.32;;;;;;;;;;4962295;28;20084;-75
2022/03/13 10:22:09;;;;;;;11.50;9.45;;;;;;;;;;4963872;28;20506;-75
2022/03/13 10:24:46;;;;;;;9.32;7.82;;;;;;;;;;4961128;28;20098;-75
2022/03/13 10:27:18;;;;;;;14.23;8.70;;;;;;;;;;4970795;28;20058;-75
2022/03/13 10:29:50;;;;;;;10.45;8.25;;;;;;;;;;4962966;28;20055;-75
2022/03/13 10:32:18;;;;;;;9.68;8.60;;;;;;;;;;4965908;28;20050;-75
2022/03/13 10:34:59;;;;;;;9.88;7.90;;;;;;;;;;4963353;28;20154;-75
2022/03/13 10:37:45;;;;;;;9.63;8.52;;;;;;;;;;4963604;28;20140;-75
2022/03/13 10:40:22;;;;;;;9.57;8.57;;;;;;;;;;4968353;28;20598;-75
2022/03/13 10:42:54;;;;;;;9.30;7.72;;;;;;;;;;4960974;28;20494;-75
2022/03/13 10:45:37;;;;;;;11.18;8.55;;;;;;;;;;4968347;28;20418;-76
2022/03/13 10:48:32;;;;;;;9.40;8.23;;;;;;;;;;4965589;28;20392;-76
2022/03/13 10:51:17;;;;;;;8.15;7.30;;;;;;;;;;4963511;28;20133;-75
2022/03/13 10:53:47;;;;;;;9.85;7.95;;;;;;;;;;4963400;28;20487;-77
2022/03/13 10:56:22;;;;;;;13.32;9.95;;;;;;;;;;4970357;23;20058;-75
2022/03/13 10:58:49;;;;;;;;;;;;;;;;;;5104290;23;20048;-69
2022/03/13 11:01:19;;;;;;;10.07;9.02;;;;;;;;;;4992094;23;19928;-70
2022/03/13 11:06:31;;;;;;;10.50;9.50;;;;;;;;;;4951252;28;20036;-82
2022/03/13 11:09:14;;;;;;;9.43;8.48;;;;;;;;;;4973740;23;20485;31
2022/03/13 11:11:41;;;;;;;12.10;9.70;;;;;;;;;;5430411;23;20077;-71
2022/03/13 11:14:15;;;;;;;11.20;8.27;;;;;;;;;;4971754;28;20059;-68
2022/03/13 11:16:43;;;;;;;10.63;8.65;;;;;;;;;;4965223;28;20082;-69
2022/03/13 11:19:11;;;;;;;11.35;8.80;;;;;;;;;;4968143;28;20050;-68
2022/03/13 11:21:39;;;;;;;11.18;8.30;;;;;;;;;;4969020;28;20043;-69
2022/03/13 11:24:08;;;;;;;10.85;8.38;;;;;;;;;;4975482;28;20042;-69
2022/03/13 11:26:40;;;;;;;10.55;7.43;;;;;;;;;;4965747;28;20170;-69
2022/03/13 11:29:12;;;;;;;9.45;7.40;;;;;;;;;;4970167;28;20406;-71
2022/03/13 11:32:01;;;;;;;9.02;7.50;;;;;;;;;;4967547;28;20530;-70
2022/03/13 11:34:29;;;;;;;8.43;7.65;;;;;;;;;;4968675;28;20046;-69
2022/03/13 11:36:58;;;;;;;8.75;7.85;;;;;;;;;;4971772;28;20074;-69
2022/03/13 11:39:31;;;;;;;8.27;7.47;;;;;;;;;;4973326;28;20165;-69
2022/03/13 11:42:03;;;;;;;9.35;8.32;;;;;;;;;;4973395;28;20549;-70
2022/03/13 11:44:51;;;;;;;11.63;9.05;;;;;;;;;;4974223;28;20047;-69
2022/03/13 11:47:22;;;;;;;10.35;8.68;;;;;;;;;;4966770;28;20526;-68
2022/03/13 11:49:52;;;;;;;10.35;8.93;;;;;;;;;;4963711;28;20047;-68
2022/03/13 11:52:26;;;;;;;11.60;7.75;;;;;;;;;;4973032;28;20043;-68
2022/03/13 11:54:58;;;;;;;9.50;8.38;;;;;;;;;;4966372;28;20547;-68
2022/03/13 11:57:50;;;;;;;8.60;7.75;;;;;;;;;;4963565;23;20422;-72
2022/03/13 12:00:18;;;;;;;12.52;9.25;;;;;;;;;;4953858;28;20055;-73
2022/03/13 12:02:48;;;;;;;15.02;9.23;;;;;;;;;;4940214;28;20974;-70
2022/03/13 12:05:31;;;;;;;10.52;8.55;;;;;;;;;;4944344;28;20056;-69
2022/03/13 12:08:05;;;;;;;10.30;9.02;;;;;;;;;;4941194;28;20114;-72
2022/03/13 12:10:57;;;;;;;10.85;8.65;;;;;;;;;;4940754;28;20487;-71
2022/03/13 12:13:29;;;;;;;9.32;8.23;;;;;;;;;;4944294;29;20051;-71
2022/03/13 12:16:12;;;;;;;8.52;7.68;;;;;;;;;;4952031;28;20059;-70
2022/03/13 12:18:41;;;;;;;9.98;8.63;;;;;;;;;;4948799;28;20150;-70
2022/03/13 12:21:18;;;;;;;11.43;8.70;;;;;;;;;;4948877;28;20047;-71
2022/03/13 12:23:48;;;;;;;9.88;8.90;;;;;;;;;;4957020;28;20055;-70
2022/03/13 12:26:17;;;;;;;8.60;7.75;;;;;;;;;;4956893;28;20134;-70
2022/03/13 12:28:45;;;;;;;9.30;7.93;;;;;;;;;;4955664;28;20506;-71
2022/03/13 12:31:15;;;;;;;8.43;7.63;;;;;;;;;;4945488;28;20109;-70
2022/03/13 12:33:46;;;;;;;11.50;8.30;;;;;;;;;;4942797;28;20060;-70
2022/03/13 12:36:16;;;;;;;8.75;7.85;;;;;;;;;;4950087;28;20044;-70
2022/03/13 12:38:49;;;;;;;8.75;7.90;;;;;;;;;;4946020;28;20062;-71
2022/03/13 12:41:17;;;;;;;13.90;8.40;;;;;;;;;;4945927;28;20411;-70
2022/03/13 12:43:54;;;;;;;11.05;8.30;;;;;;;;;;4947291;28;20058;-69
2022/03/13 12:46:28;;;;;;;9.43;7.95;;;;;;;;;;4945515;28;20063;-70
2022/03/13 12:48:58;;;;;;;;;;;;;;;;;;4945824;28;20083;-70
2022/03/13 12:51:36;;;;;;;9.90;7.78;;;;;;;;;;4950669;29;19922;-69
2022/03/13 12:54:29;;;;;;;11.60;9.60;;;;;;;;;;4942986;29;20067;-70
2022/03/13 12:57:06;;;;;;;11.18;8.48;;;;;;;;;;4945804;28;20058;-71
2022/03/13 13:00:19;;;;;;;9.52;8.50;;;;;;;;;;4946218;28;20140;-69
2022/03/13 13:03:02;;;;;;;8.90;8.10;;;;;;;;;;4956285;28;20051;-69
2022/03/13 13:05:32;;;;;;;10.85;8.80;;;;;;;;;;4955659;28;20073;-70
2022/03/13 13:08:00;;;;;;;15.27;9.95;;;;;;;;;;4956790;28;20066;-71
2022/03/13 13:10:29;;;;;;;12.80;8.98;;;;;;;;;;4950400;28;20089;-70
2022/03/13 13:13:02;;;;;;;10.07;7.90;;;;;;;;;;4956229;28;20044;-70
2022/03/13 13:15:34;;;;;;;8.10;7.25;;;;;;;;;;4956361;28;20078;-69
2022/03/13 13:18:03;;;;;;;12.07;8.43;;;;;;;;;;4956191;28;20057;-69
2022/03/13 13:20:33;;;;;;;9.32;8.35;;;;;;;;;;4956556;28;20055;-69
2022/03/13 13:23:12;;;;;;;8.57;7.72;;;;;;;;;;4956261;28;20051;-69
2022/03/13 13:25:44;;;;;;;12.63;10.40;;;;;;;;;;4955504;29;20449;-70
2022/03/13 13:28:14;;;;;;;8.40;7.53;;;;;;;;;;4955196;28;20075;-70
2022/03/13 13:30:42;;;;;;;10.60;8.20;;;;;;;;;;4938044;28;20047;-70
2022/03/13 13:33:16;;;;;;;10.07;8.18;;;;;;;;;;4956144;28;20113;-70
2022/03/13 13:35:46;;;;;;;11.38;8.38;;;;;;;;;;4956385;28;20142;-71
2022/03/13 13:38:18;;;;;;;9.07;7.68;;;;;;;;;;4956987;28;20562;-70
2022/03/13 13:40:52;;;;;;;12.10;9.35;;;;;;;;;;4937183;29;20530;-70
2022/03/13 13:43:31;;;;;;;9.60;8.60;;;;;;;;;;4943880;28;20118;-70
2022/03/13 13:46:02;;;;;;;10.50;8.35;;;;;;;;;;4958500;29;20286;-71
2022/03/13 13:48:31;;;;;;;9.23;8.20;;;;;;;;;;4960350;28;20522;-70
2022/03/13 13:51:13;;;;;;;10.23;8.48;;;;;;;;;;4947902;28;20071;-70
2022/03/13 13:54:09;;;;;;;13.38;10.20;;;;;;;;;;4940824;29;20056;-70
2022/03/13 13:56:48;;;;;;;12.00;10.23;;;;;;;;;;4947630;28;20055;-70
2022/03/13 13:59:28;;;;;;;10.23;9.07;;;;;;;;;;4959166;29;20043;-69
2022/03/13 14:02:02;;;;;;;9.60;8.35;;;;;;;;;;4960063;28;20098;-71
2022/03/13 14:04:39;;;;;;;10.65;8.35;;;;;;;;;;4959873;28;20054;-70
2022/03/13 14:07:09;;;;;;;10.93;8.00;;;;;;;;;;4959500;28;20081;-70
2022/03/13 14:09:38;;;;;;;9.00;8.10;;;;;;;;;;4953431;28;20053;-70
2022/03/13 14:12:08;;;;;;;11.70;9.23;;;;;;;;;;4959134;28;20058;-69
2022/03/13 14:14:36;;;;;;;10.10;8.20;;;;;;;;;;4959982;28;20462;-69
2022/03/13 14:17:05;;;;;;;10.57;8.10;;;;;;;;;;4959896;28;20059;-70
2022/03/13 14:19:34;;;;;;;8.57;7.75;;;;;;;;;;4959596;28;20051;-71
2022/03/13 14:22:06;;;;;;;8.85;7.97;;;;;;;;;;4959677;29;20102;-69
2022/03/13 14:24:34;;;;;;;12.43;9.57;;;;;;;;;;4958848;28;20083;-71
2022/03/13 14:27:03;;;;;;;9.45;8.10;;;;;;;;;;4959542;28;20058;-70
2022/03/13 14:29:33;;;;;;;14.07;8.15;;;;;;;;;;4959079;28;20058;-71
2022/03/13 14:32:02;;;;;;;12.93;9.13;;;;;;;;;;4959033;28;20589;-71
2022/03/13 14:34:31;;;;;;;10.68;9.10;;;;;;;;;;4959411;28;20051;-69
2022/03/13 14:37:04;;;;;;;12.30;8.98;;;;;;;;;;4958841;28;20047;-69
2022/03/13 14:39:52;;;;;;;12.93;9.05;;;;;;;;;;4958630;29;20454;-70
2022/03/13 14:42:21;;;;;;;11.07;9.48;;;;;;;;;;4958593;29;20066;-70
2022/03/13 14:44:50;;;;;;;10.85;9.52;;;;;;;;;;4958616;28;20047;-71
2022/03/13 14:47:19;;;;;;;9.90;8.90;;;;;;;;;;4956951;29;20058;-71
2022/03/13 14:50:09;;;;;;;9.05;8.10;;;;;;;;;;4945121;28;20044;-70